Poplar City, Illinois
Current Conditions -  °F | °C
As of 2:35 PM on Saturday 25 Oct 2014 (Local Time) from KAAA Reporting Station
Clear Clear  
Wind Chill: 77°   Ceiling: Unl
Heat Index: 78°   Visibility: 10mi
Dew Point: 46°   Wind: 7mph
Humidity: 34%   Direction: 320°NW
Pressure: 29.97"   Gusts: NA
Location:  40.2326°N, 89.8458°W
Report Text: KAAA 251935Z AUTO 32006KT 290V360 10SM CLR 25/08 A2997 RMK AO2 T02510080
Loading
Personal Weather Stations






























Interactive Weather Map
Tropical Storm Tracking
New forecast layout! Learn more

10-Day Weather Forecast

Advertisements
Track Severe Weather on mobile